createdAt,value
2022-09-23T00:01:15.640Z,70.96
2022-09-23T00:03:45.372Z,70.70
2022-09-23T00:06:15.837Z,70.78
2022-09-23T00:08:44.058Z,71.02
2022-09-23T00:11:15.321Z,70.87
2022-09-23T00:13:45.168Z,70.98
2022-09-23T00:16:15.151Z,70.94
2022-09-23T00:18:43.233Z,71.00
2022-09-23T00:21:12.911Z,70.88
2022-09-23T00:23:41.683Z,70.87
2022-09-23T00:26:11.312Z,70.85
2022-09-23T00:28:40.579Z,70.89
2022-09-23T00:31:10.190Z,71.10
2022-09-23T00:33:37.828Z,70.83
2022-09-23T00:36:07.541Z,70.81
2022-09-23T00:38:35.320Z,71.36
2022-09-23T00:41:04.099Z,71.03
2022-09-23T00:43:41.322Z,71.00
2022-09-23T00:46:10.932Z,70.92
2022-09-23T00:48:42.187Z,71.06
2022-09-23T00:51:12.822Z,70.69
2022-09-23T00:53:41.624Z,70.87
2022-09-23T00:56:10.666Z,70.26
2022-09-23T00:58:43.683Z,70.95
2022-09-23T01:01:13.811Z,70.84
2022-09-23T01:03:43.905Z,70.75
2022-09-23T01:06:12.075Z,70.66
2022-09-23T01:08:40.172Z,70.68
2022-09-23T01:11:16.910Z,70.85
2022-09-23T01:13:57.268Z,70.79
2022-09-23T01:16:34.567Z,70.77
2022-09-23T01:19:14.382Z,70.94
2022-09-23T01:21:50.645Z,70.88
2022-09-23T01:24:54.598Z,70.72
2022-09-23T01:27:41.417Z,70.91
2022-09-23T01:30:20.883Z,70.88
2022-09-23T01:33:05.545Z,70.76
2022-09-23T01:35:44.235Z,70.86
2022-09-23T01:38:21.033Z,70.84
2022-09-23T01:40:56.117Z,70.87
2022-09-23T01:43:28.951Z,70.62
2022-09-23T01:46:00.334Z,70.79
2022-09-23T01:48:35.031Z,70.81
2022-09-23T01:51:07.931Z,70.83
2022-09-23T01:53:41.985Z,70.89
2022-09-23T01:56:14.155Z,70.75
2022-09-23T01:58:46.451Z,70.88
2022-09-23T02:01:19.736Z,70.91
2022-09-23T02:03:55.371Z,70.92
2022-09-23T02:06:27.982Z,71.15
2022-09-23T02:09:00.306Z,70.81
2022-09-23T02:11:29.062Z,70.82
2022-09-23T02:14:01.010Z,70.79
2022-09-23T02:16:32.945Z,70.88
2022-09-23T02:19:07.270Z,71.02
2022-09-23T02:21:39.264Z,70.85
2022-09-23T02:24:12.368Z,71.16
2022-09-23T02:26:47.925Z,71.01
2022-09-23T02:29:21.392Z,70.79
2022-09-23T02:31:58.197Z,70.76
2022-09-23T02:34:36.987Z,71.08
2022-09-23T02:37:17.005Z,70.75
2022-09-23T02:39:56.111Z,70.86
2022-09-23T02:42:31.205Z,70.75
2022-09-23T02:44:58.940Z,71.35
2022-09-23T02:47:31.950Z,70.73
2022-09-23T02:50:00.954Z,70.78
2022-09-23T02:52:28.649Z,70.59
2022-09-23T02:54:57.059Z,70.81
2022-09-23T02:57:24.671Z,70.74
2022-09-23T02:59:52.535Z,70.46
2022-09-23T03:02:44.071Z,70.79
2022-09-23T03:05:23.853Z,70.59
2022-09-23T03:08:04.997Z,70.54
2022-09-23T03:10:43.006Z,70.61
2022-09-23T03:13:18.549Z,70.50
2022-09-23T03:15:52.402Z,70.56
2022-09-23T03:18:31.252Z,70.25
2022-09-23T03:21:06.158Z,70.66
2022-09-23T03:23:36.680Z,70.45
2022-09-23T03:26:10.388Z,70.33
2022-09-23T03:28:39.609Z,70.43
2022-09-23T03:31:07.412Z,70.44
2022-09-23T03:33:37.736Z,70.47
2022-09-23T03:36:27.954Z,70.44
2022-09-23T03:39:02.336Z,70.38
2022-09-23T03:41:34.659Z,70.30
2022-09-23T03:44:03.328Z,70.36
2022-09-23T03:46:34.030Z,70.38
2022-09-23T03:49:11.653Z,70.42
2022-09-23T03:51:44.481Z,70.48
2022-09-23T03:54:12.323Z,70.42
2022-09-23T03:56:39.873Z,70.66
2022-09-23T03:59:07.405Z,70.51
2022-09-23T04:01:34.904Z,70.38
2022-09-23T04:04:02.759Z,70.46
2022-09-23T04:06:30.273Z,70.64
2022-09-23T04:08:59.834Z,70.68
2022-09-23T04:11:27.325Z,70.80
2022-09-23T04:13:56.257Z,70.31
2022-09-23T04:16:24.022Z,70.32
2022-09-23T04:18:52.236Z,70.72
2022-09-23T04:21:19.817Z,70.62
2022-09-23T04:23:47.465Z,70.61
2022-09-23T04:26:16.669Z,70.48
2022-09-23T04:28:44.231Z,69.82
2022-09-23T04:31:11.790Z,70.42
2022-09-23T04:33:39.571Z,70.16
2022-09-23T04:36:07.652Z,70.38
2022-09-23T04:38:35.728Z,70.23
2022-09-23T04:41:03.232Z,70.49
2022-09-23T04:43:32.186Z,70.20
2022-09-23T04:46:00.830Z,70.41
2022-09-23T04:48:28.509Z,70.44
2022-09-23T04:50:56.167Z,70.30
2022-09-23T04:53:23.702Z,70.82
2022-09-23T04:55:52.229Z,70.44
2022-09-23T04:58:22.983Z,70.35
2022-09-23T05:00:52.210Z,70.56
2022-09-23T05:03:19.729Z,70.19
2022-09-23T05:05:47.427Z,70.90
2022-09-23T05:08:15.267Z,70.33
2022-09-23T05:10:43.201Z,70.68
2022-09-23T05:13:10.738Z,70.55
2022-09-23T05:15:38.238Z,70.32
2022-09-23T05:18:07.148Z,70.18
2022-09-23T05:20:34.643Z,70.42
2022-09-23T05:23:02.171Z,70.80
2022-09-23T05:25:29.660Z,70.64
2022-09-23T05:27:57.192Z,70.08
2022-09-23T05:32:52.455Z,70.42
2022-09-23T05:35:21.282Z,70.81
2022-09-23T05:37:48.815Z,70.46
2022-09-23T05:40:16.335Z,70.41
2022-09-23T05:42:43.901Z,70.55
2022-09-23T05:45:11.593Z,70.59
2022-09-23T05:47:39.265Z,70.65
2022-09-23T05:50:07.642Z,70.82
2022-09-23T05:52:36.532Z,70.98
2022-09-23T05:55:04.556Z,70.61
2022-09-23T05:57:32.662Z,70.78
2022-09-23T06:00:00.307Z,71.17
2022-09-23T06:02:27.838Z,71.08
2022-09-23T06:04:55.409Z,71.53
2022-09-23T06:07:22.932Z,71.58
2022-09-23T06:09:53.929Z,71.72
2022-09-23T06:12:22.501Z,71.75
2022-09-23T06:14:50.679Z,71.65
2022-09-23T06:17:18.203Z,72.35
2022-09-23T06:19:45.861Z,72.31
2022-09-23T06:22:16.949Z,72.73
2022-09-23T06:24:44.502Z,72.18
2022-09-23T06:27:13.426Z,72.92
2022-09-23T06:29:41.006Z,72.82
2022-09-23T06:32:08.769Z,73.42
2022-09-23T06:34:48.287Z,73.01
2022-09-23T06:37:20.513Z,73.81
2022-09-23T06:39:49.029Z,74.03
2022-09-23T06:42:18.468Z,73.98
2022-09-23T06:44:45.963Z,74.15
2022-09-23T06:47:13.470Z,73.71
2022-09-23T06:49:41.178Z,74.23
2022-09-23T06:52:09.040Z,74.30
2022-09-23T06:54:38.041Z,74.49
2022-09-23T06:57:05.626Z,74.21
2022-09-23T06:59:34.944Z,75.39
2022-09-23T07:02:02.840Z,74.67
2022-09-23T07:04:30.500Z,74.70
2022-09-23T07:06:58.129Z,74.69
2022-09-23T07:09:25.932Z,75.24
2022-09-23T07:11:53.467Z,74.85
2022-09-23T07:14:21.005Z,75.53
2022-09-23T07:16:51.381Z,75.22
2022-09-23T07:19:18.896Z,76.38
2022-09-23T07:21:46.384Z,75.92
2022-09-23T07:24:13.916Z,75.96
2022-09-23T07:26:45.561Z,77.34
2022-09-23T07:29:14.988Z,79.69
2022-09-23T07:31:43.015Z,79.43
2022-09-23T07:34:12.150Z,79.79
2022-09-23T07:36:40.595Z,80.35
2022-09-23T07:39:08.903Z,81.80
2022-09-23T07:41:37.156Z,83.25
2022-09-23T07:44:06.211Z,82.08
2022-09-23T07:46:37.002Z,82.34
2022-09-23T07:49:06.246Z,84.88
2022-09-23T07:51:38.218Z,85.03
2022-09-23T07:54:08.721Z,83.76
2022-09-23T07:56:37.703Z,84.67
2022-09-23T07:59:05.734Z,84.18
2022-09-23T08:01:35.988Z,84.02
2022-09-23T08:04:06.910Z,85.80
2022-09-23T08:06:36.757Z,84.80
2022-09-23T08:09:04.639Z,84.63
2022-09-23T08:11:32.846Z,84.92
2022-09-23T08:14:00.354Z,85.61
2022-09-23T08:16:27.907Z,84.50
2022-09-23T08:18:55.501Z,83.47
2022-09-23T08:21:24.032Z,84.22
2022-09-23T08:23:52.971Z,83.52
2022-09-23T08:26:22.430Z,84.76
2022-09-23T08:28:53.839Z,84.08
2022-09-23T08:31:21.645Z,84.14
2022-09-23T08:33:49.722Z,84.11
2022-09-23T08:36:17.356Z,85.30
2022-09-23T08:38:44.930Z,85.44
2022-09-23T08:41:21.479Z,84.61
2022-09-23T08:43:53.365Z,84.63
2022-09-23T08:46:25.374Z,83.83
2022-09-23T08:48:53.566Z,84.73
2022-09-23T08:51:27.029Z,83.93
2022-09-23T08:53:54.606Z,83.81
2022-09-23T08:56:25.037Z,83.32
2022-09-23T08:59:01.248Z,83.46
2022-09-23T09:01:35.174Z,83.81
2022-09-23T09:04:07.394Z,83.47
2022-09-23T09:06:52.897Z,83.18
2022-09-23T09:09:25.012Z,82.57
2022-09-23T09:12:00.928Z,82.29
2022-09-23T09:14:36.794Z,82.72
2022-09-23T09:17:07.922Z,82.99
2022-09-23T09:19:59.282Z,82.63
2022-09-23T09:22:43.260Z,81.96
2022-09-23T09:25:23.837Z,82.11
2022-09-23T09:27:53.639Z,81.84
2022-09-23T09:30:21.590Z,81.75
2022-09-23T09:32:53.431Z,81.96
2022-09-23T09:35:28.060Z,81.19
2022-09-23T09:37:55.924Z,80.18
2022-09-23T09:40:23.536Z,79.97
2022-09-23T09:42:52.461Z,80.65
2022-09-23T09:45:30.022Z,79.95
2022-09-23T09:48:05.783Z,80.32
2022-09-23T09:50:49.217Z,79.71
2022-09-23T09:53:27.456Z,79.21
2022-09-23T09:56:04.950Z,80.14
2022-09-23T09:58:43.885Z,78.19
2022-09-23T10:01:20.233Z,77.79
2022-09-23T10:03:48.226Z,76.19
2022-09-23T10:06:22.137Z,75.60
2022-09-23T10:09:12.000Z,75.02
2022-09-23T10:11:41.021Z,74.50
2022-09-23T10:14:17.496Z,75.31
2022-09-23T10:16:48.754Z,77.21
2022-09-23T10:19:26.412Z,75.86
2022-09-23T10:21:56.819Z,76.24
2022-09-23T10:24:27.599Z,75.27
2022-09-23T10:27:00.846Z,75.08
2022-09-23T10:29:32.840Z,74.33
2022-09-23T10:32:25.543Z,74.30
2022-09-23T10:34:56.971Z,74.12
2022-09-23T10:37:33.286Z,73.14
2022-09-23T10:40:18.830Z,73.23
2022-09-23T10:43:18.384Z,73.22
2022-09-23T10:46:22.267Z,68.83
2022-09-23T10:49:05.871Z,67.95
2022-09-23T10:51:45.567Z,69.87
2022-09-23T10:54:22.770Z,70.63
2022-09-23T10:57:01.227Z,68.83
2022-09-23T10:59:44.611Z,67.75
2022-09-23T11:02:27.999Z,67.72
2022-09-23T11:05:13.849Z,69.20
2022-09-23T11:07:49.247Z,69.13
2022-09-23T11:10:46.573Z,68.09
2022-09-23T11:13:30.973Z,69.25
2022-09-23T11:16:08.697Z,69.38
2022-09-23T11:18:59.420Z,69.47
2022-09-23T11:21:42.499Z,68.14
2022-09-23T11:24:23.803Z,67.10
2022-09-23T11:27:04.954Z,68.11
2022-09-23T11:29:53.223Z,68.79
2022-09-23T11:32:38.255Z,67.25
2022-09-23T11:35:17.451Z,68.14
2022-09-23T11:37:49.977Z,67.91
2022-09-23T11:40:21.854Z,67.53
2022-09-23T11:42:58.099Z,66.81
2022-09-23T11:45:30.976Z,65.82
2022-09-23T11:48:03.611Z,66.17
2022-09-23T11:50:35.853Z,65.75
2022-09-23T11:53:08.820Z,64.79
2022-09-23T11:55:55.293Z,62.63
2022-09-23T11:58:31.272Z,62.64
2022-09-23T12:01:02.078Z,60.50
2022-09-23T12:03:44.319Z,62.35
2022-09-23T12:06:18.543Z,60.79
2022-09-23T12:08:46.133Z,61.60
2022-09-23T12:11:24.856Z,62.46
2022-09-23T12:14:00.848Z,64.16
2022-09-23T12:16:45.546Z,64.86
2022-09-23T12:19:28.676Z,62.97
2022-09-23T12:22:16.833Z,63.28
2022-09-23T12:24:48.385Z,63.41
2022-09-23T12:27:27.904Z,63.08
2022-09-23T12:29:59.808Z,60.70
2022-09-23T12:32:28.299Z,61.05
2022-09-23T12:34:56.327Z,62.55
2022-09-23T12:37:28.978Z,63.57
2022-09-23T12:40:02.515Z,63.72
2022-09-23T12:42:31.392Z,62.29
2022-09-23T12:45:34.974Z,61.37
2022-09-23T12:48:04.217Z,59.61
2022-09-23T12:50:48.456Z,58.16
2022-09-23T12:53:53.113Z,58.93
2022-09-23T12:56:24.609Z,57.80
2022-09-23T12:59:10.803Z,60.76
2022-09-23T13:01:39.392Z,60.51
2022-09-23T13:04:24.897Z,60.96
2022-09-23T13:06:58.694Z,60.63
2022-09-23T13:09:29.276Z,57.51
2022-09-23T13:12:02.369Z,58.21
2022-09-23T13:14:32.895Z,58.23
2022-09-23T13:17:00.781Z,58.49
2022-09-23T13:19:47.377Z,58.30
2022-09-23T13:22:15.066Z,53.93
2022-09-23T13:24:45.238Z,56.47
2022-09-23T13:27:19.958Z,59.25
2022-09-23T13:29:52.867Z,59.05
2022-09-23T13:32:22.252Z,59.77
2022-09-23T13:34:58.177Z,58.66
2022-09-23T13:37:31.281Z,57.00
2022-09-23T13:40:09.845Z,55.67
2022-09-23T13:42:41.923Z,57.58
2022-09-23T13:45:16.397Z,58.76
2022-09-23T13:47:45.527Z,56.54
2022-09-23T13:50:18.125Z,58.42
2022-09-23T13:52:46.325Z,58.36
2022-09-23T13:55:32.314Z,57.50
2022-09-23T13:58:04.261Z,59.95
2022-09-23T14:00:36.512Z,59.31
2022-09-23T14:03:16.753Z,59.21
2022-09-23T14:05:44.595Z,60.54
2022-09-23T14:08:13.060Z,56.31
2022-09-23T14:10:42.919Z,57.71
2022-09-23T14:13:17.384Z,56.42
2022-09-23T14:15:46.208Z,58.44
2022-09-23T14:18:19.572Z,55.39
2022-09-23T14:20:50.249Z,56.98
2022-09-23T14:23:18.716Z,55.37
2022-09-23T14:25:47.779Z,56.81
2022-09-23T14:28:19.222Z,55.44
2022-09-23T14:30:48.096Z,56.05
2022-09-23T14:33:17.993Z,56.76
2022-09-23T14:35:49.227Z,57.20
2022-09-23T14:38:41.626Z,56.18
2022-09-23T14:41:18.080Z,56.13
2022-09-23T14:43:54.627Z,57.08
2022-09-23T14:46:24.508Z,56.87
2022-09-23T14:48:59.061Z,58.13
2022-09-23T14:51:33.407Z,58.01
2022-09-23T14:54:41.249Z,58.91
2022-09-23T14:57:29.721Z,58.65
2022-09-23T15:00:02.438Z,59.09
2022-09-23T15:02:32.560Z,57.71
2022-09-23T15:05:31.405Z,58.72
2022-09-23T15:08:02.761Z,59.54
2022-09-23T15:10:33.422Z,59.89
2022-09-23T15:13:06.529Z,59.09
2022-09-23T15:15:36.231Z,59.74
2022-09-23T15:18:07.128Z,60.40
2022-09-23T15:20:35.636Z,60.98
2022-09-23T15:23:03.791Z,61.31
2022-09-23T15:25:34.105Z,60.25
2022-09-23T15:28:05.821Z,61.22
2022-09-23T15:30:38.135Z,62.17
2022-09-23T15:33:06.317Z,61.80
2022-09-23T15:35:35.026Z,61.10
2022-09-23T15:38:03.213Z,60.63
2022-09-23T15:40:32.398Z,61.14
2022-09-23T15:43:01.321Z,61.60
2022-09-23T15:45:33.127Z,61.65
2022-09-23T15:48:07.312Z,62.33
2022-09-23T15:50:35.944Z,62.41
2022-09-23T15:53:04.268Z,61.75
2022-09-23T15:55:31.950Z,62.09
2022-09-23T15:57:59.649Z,62.50
2022-09-23T16:00:27.251Z,62.90
2022-09-23T16:02:55.205Z,63.10
2022-09-23T16:05:30.682Z,64.27
2022-09-23T16:07:58.357Z,65.34
2022-09-23T16:10:26.067Z,65.73
2022-09-23T16:12:55.733Z,66.60
2022-09-23T16:15:25.218Z,67.16
2022-09-23T16:17:52.885Z,67.40
2022-09-23T16:20:20.439Z,67.56
2022-09-23T16:22:54.882Z,68.14
2022-09-23T16:25:27.240Z,68.51
2022-09-23T16:27:55.404Z,68.75
2022-09-23T16:30:23.431Z,69.35
2022-09-23T16:32:51.651Z,69.53
2022-09-23T16:35:19.909Z,69.61
2022-09-23T16:37:49.640Z,70.17
2022-09-23T16:40:19.855Z,70.28
2022-09-23T16:42:47.758Z,71.11
2022-09-23T16:45:16.863Z,70.89
2022-09-23T16:47:46.161Z,70.84
2022-09-23T16:50:14.397Z,71.03
2022-09-23T16:52:42.678Z,71.21
2022-09-23T16:55:13.479Z,71.81
2022-09-23T16:57:41.905Z,71.50
2022-09-23T17:00:31.454Z,72.18
2022-09-23T17:03:16.901Z,71.27
2022-09-23T17:05:46.804Z,70.78
2022-09-23T17:08:16.336Z,71.22
2022-09-23T17:10:55.174Z,70.60
2022-09-23T17:13:22.813Z,71.88
2022-09-23T17:15:50.512Z,71.79
2022-09-23T17:18:19.623Z,72.09
2022-09-23T17:20:57.603Z,72.31
2022-09-23T17:23:26.353Z,72.79
2022-09-23T17:25:55.467Z,72.67
2022-09-23T17:28:23.348Z,73.03
2022-09-23T17:33:26.028Z,73.35
2022-09-23T17:35:54.503Z,73.50
2022-09-23T17:38:26.745Z,73.47
2022-09-23T17:41:00.994Z,73.47
2022-09-23T17:43:31.034Z,73.57
2022-09-23T17:46:06.180Z,73.85
2022-09-23T17:48:35.483Z,73.89
2022-09-23T17:51:05.015Z,73.72
2022-09-23T17:53:34.974Z,74.08
2022-09-23T17:56:06.597Z,74.12
2022-09-23T17:58:35.822Z,74.13
2022-09-23T18:01:03.433Z,74.88
2022-09-23T18:03:33.055Z,75.18
2022-09-23T18:06:08.052Z,74.62
2022-09-23T18:08:35.683Z,74.75
2022-09-23T18:11:12.084Z,74.52
2022-09-23T18:13:39.604Z,74.54
2022-09-23T18:16:07.797Z,74.99
2022-09-23T18:18:35.391Z,74.92
2022-09-23T18:21:03.232Z,74.82
2022-09-23T18:23:30.978Z,74.70
2022-09-23T18:25:58.506Z,74.90
2022-09-23T18:28:34.544Z,75.22
2022-09-23T18:31:02.397Z,75.13
2022-09-23T18:33:29.950Z,75.18
2022-09-23T18:36:00.230Z,75.04
2022-09-23T18:38:27.775Z,75.44
2022-09-23T18:40:57.003Z,75.37
2022-09-23T18:43:25.894Z,74.95
2022-09-23T18:45:59.443Z,74.99
2022-09-23T18:48:44.713Z,75.25
2022-09-23T18:51:13.506Z,75.51
2022-09-23T18:53:42.017Z,75.38
2022-09-23T18:56:10.677Z,75.61
2022-09-23T18:58:38.689Z,75.46
2022-09-23T19:01:10.276Z,75.51
2022-09-23T19:03:38.295Z,75.88
2022-09-23T19:06:07.933Z,75.57
2022-09-23T19:08:36.327Z,75.95
2022-09-23T19:11:06.204Z,76.02
2022-09-23T19:13:34.890Z,75.70
2022-09-23T19:16:03.529Z,75.89
2022-09-23T19:18:32.641Z,75.80
2022-09-23T19:21:03.644Z,76.43
2022-09-23T19:23:35.486Z,75.75
2022-09-23T19:26:05.510Z,75.67
2022-09-23T19:28:33.460Z,75.66
2022-09-23T19:31:10.646Z,76.14
2022-09-23T19:33:41.191Z,76.11
2022-09-23T19:36:09.438Z,76.10
2022-09-23T19:38:38.308Z,76.22
2022-09-23T19:41:07.826Z,76.02
2022-09-23T19:43:36.707Z,76.45
2022-09-23T19:46:04.356Z,76.37
2022-09-23T19:48:31.933Z,76.26
2022-09-23T19:51:02.539Z,76.20
2022-09-23T19:53:30.157Z,76.24
2022-09-23T19:55:57.802Z,76.50
2022-09-23T19:58:26.254Z,76.22
2022-09-23T20:00:53.892Z,76.79
2022-09-23T20:03:21.474Z,76.06
2022-09-23T20:05:56.555Z,76.75
2022-09-23T20:08:26.851Z,76.22
2022-09-23T20:10:54.491Z,76.64
2022-09-23T20:13:22.339Z,76.83
2022-09-23T20:15:50.170Z,76.95
2022-09-23T20:18:17.695Z,76.69
2022-09-23T20:20:45.209Z,77.15
2022-09-23T20:23:12.715Z,76.91
2022-09-23T20:25:59.006Z,77.08
2022-09-23T20:28:27.334Z,76.81
2022-09-23T20:30:59.033Z,76.59
2022-09-23T20:33:26.584Z,77.45
2022-09-23T20:35:54.084Z,76.28
2022-09-23T20:38:21.593Z,77.02
2022-09-23T20:40:56.896Z,76.72
2022-09-23T20:43:24.641Z,76.60
2022-09-23T20:45:52.974Z,76.75
2022-09-23T20:48:20.552Z,76.82
2022-09-23T20:50:49.055Z,76.09
2022-09-23T20:53:16.579Z,76.59
2022-09-23T20:55:50.120Z,77.03
2022-09-23T20:58:19.338Z,76.79
2022-09-23T21:00:46.930Z,76.96
2022-09-23T21:03:14.731Z,77.06
2022-09-23T21:05:42.493Z,76.89
2022-09-23T21:08:10.126Z,76.56
2022-09-23T21:10:37.730Z,76.52
2022-09-23T21:13:06.874Z,75.84
2022-09-23T21:15:36.793Z,76.69
2022-09-23T21:18:04.503Z,76.73
2022-09-23T21:20:32.005Z,77.06
2022-09-23T21:22:59.528Z,75.71
2022-09-23T21:25:29.018Z,75.67
2022-09-23T21:27:58.376Z,76.30
2022-09-23T21:30:26.182Z,76.65
2022-09-23T21:32:55.842Z,76.48
2022-09-23T21:35:23.495Z,76.03
2022-09-23T21:37:51.003Z,76.43
2022-09-23T21:40:36.447Z,76.40
2022-09-23T21:43:04.030Z,75.24
2022-09-23T21:45:31.748Z,76.01
2022-09-23T21:48:01.204Z,75.42
2022-09-23T21:50:29.954Z,75.02
2022-09-23T21:52:58.232Z,75.20
2022-09-23T21:55:27.666Z,75.32
2022-09-23T21:57:55.167Z,75.89
2022-09-23T22:00:23.449Z,75.76
2022-09-23T22:02:52.355Z,75.42
2022-09-23T22:05:21.535Z,75.66
2022-09-23T22:07:49.021Z,75.12
2022-09-23T22:10:16.763Z,75.86
2022-09-23T22:12:44.266Z,75.15
2022-09-23T22:15:11.773Z,75.70
2022-09-23T22:17:39.735Z,75.59
2022-09-23T22:20:08.257Z,75.90
2022-09-23T22:22:37.114Z,75.91
2022-09-23T22:25:05.011Z,75.46
2022-09-23T22:27:32.545Z,75.68
2022-09-23T22:30:17.595Z,75.54
2022-09-23T22:32:52.854Z,75.66
2022-09-23T22:35:22.022Z,75.63
2022-09-23T22:37:50.867Z,75.27
2022-09-23T22:40:18.501Z,75.44
2022-09-23T22:42:46.202Z,75.81
2022-09-23T22:45:14.067Z,75.65
2022-09-23T22:47:44.030Z,75.54
2022-09-23T22:50:13.853Z,75.37
2022-09-23T22:52:41.463Z,75.38
2022-09-23T22:55:10.721Z,75.85
2022-09-23T22:57:38.577Z,75.53
2022-09-23T23:00:07.820Z,75.53
2022-09-23T23:02:35.365Z,75.67
2022-09-23T23:05:02.911Z,75.88
2022-09-23T23:07:30.466Z,75.17
2022-09-23T23:09:58.165Z,75.49
2022-09-23T23:12:27.093Z,75.52
2022-09-23T23:14:54.825Z,75.55
2022-09-23T23:17:22.301Z,75.56
2022-09-23T23:19:50.572Z,75.77
2022-09-23T23:22:18.152Z,76.00
2022-09-23T23:24:45.677Z,75.97
2022-09-23T23:27:13.183Z,75.56
2022-09-23T23:29:42.069Z,75.72
2022-09-23T23:32:09.783Z,75.67
2022-09-23T23:34:37.346Z,75.87
2022-09-23T23:37:04.869Z,75.72
2022-09-23T23:39:32.408Z,75.92
2022-09-23T23:42:00.229Z,75.30
2022-09-23T23:44:31.067Z,76.26
2022-09-23T23:47:00.000Z,75.95
2022-09-23T23:49:28.663Z,75.88
2022-09-23T23:51:56.256Z,75.81
2022-09-23T23:54:23.779Z,75.88
2022-09-23T23:56:51.938Z,76.39
2022-09-23T23:59:20.869Z,75.94
